sensor_id;sensor_type;location;lat;lon;timestamp;temperature;humidity
439;DHT22;206;48.782;9.252;2022-12-07T00:00:41;6.70;57.60
439;DHT22;206;48.782;9.252;2022-12-07T00:03:07;6.70;57.20
439;DHT22;206;48.782;9.252;2022-12-07T00:05:32;6.70;57.40
439;DHT22;206;48.782;9.252;2022-12-07T00:07:58;6.70;57.10
439;DHT22;206;48.782;9.252;2022-12-07T00:10:23;6.60;57.70
439;DHT22;206;48.782;9.252;2022-12-07T00:12:49;6.60;58.00
439;DHT22;206;48.782;9.252;2022-12-07T00:15:15;6.70;58.20
439;DHT22;206;48.782;9.252;2022-12-07T00:17:41;6.70;57.00
439;DHT22;206;48.782;9.252;2022-12-07T00:20:07;6.70;56.30
439;DHT22;206;48.782;9.252;2022-12-07T00:22:32;6.80;56.90
439;DHT22;206;48.782;9.252;2022-12-07T00:24:58;6.70;56.30
439;DHT22;206;48.782;9.252;2022-12-07T00:27:23;6.70;56.30
439;DHT22;206;48.782;9.252;2022-12-07T00:29:49;6.60;56.20
439;DHT22;206;48.782;9.252;2022-12-07T00:32:15;6.50;57.10
439;DHT22;206;48.782;9.252;2022-12-07T00:34:40;6.50;58.00
439;DHT22;206;48.782;9.252;2022-12-07T00:37:06;6.50;57.50
439;DHT22;206;48.782;9.252;2022-12-07T00:39:31;6.50;57.20
439;DHT22;206;48.782;9.252;2022-12-07T00:41:57;6.40;57.30
439;DHT22;206;48.782;9.252;2022-12-07T00:44:22;6.40;57.50
439;DHT22;206;48.782;9.252;2022-12-07T00:46:48;6.30;57.60
439;DHT22;206;48.782;9.252;2022-12-07T00:49:13;6.20;58.20
439;DHT22;206;48.782;9.252;2022-12-07T00:51:39;6.20;58.10
439;DHT22;206;48.782;9.252;2022-12-07T00:54:05;6.20;58.70
439;DHT22;206;48.782;9.252;2022-12-07T00:56:30;6.10;59.60
439;DHT22;206;48.782;9.252;2022-12-07T00:58:58;6.10;60.00
439;DHT22;206;48.782;9.252;2022-12-07T01:01:26;6.10;59.90
439;DHT22;206;48.782;9.252;2022-12-07T01:03:52;6.10;60.40
439;DHT22;206;48.782;9.252;2022-12-07T01:06:19;6.20;60.50
439;DHT22;206;48.782;9.252;2022-12-07T01:08:45;6.10;60.30
439;DHT22;206;48.782;9.252;2022-12-07T01:11:15;6.20;59.60
439;DHT22;206;48.782;9.252;2022-12-07T01:13:41;6.20;58.70
439;DHT22;206;48.782;9.252;2022-12-07T01:16:07;6.20;58.90
439;DHT22;206;48.782;9.252;2022-12-07T01:18:35;6.20;57.60
439;DHT22;206;48.782;9.252;2022-12-07T01:21:06;6.20;58.00
439;DHT22;206;48.782;9.252;2022-12-07T01:23:34;6.20;59.10
439;DHT22;206;48.782;9.252;2022-12-07T01:26:03;6.20;57.80
439;DHT22;206;48.782;9.252;2022-12-07T01:28:28;6.20;57.50
439;DHT22;206;48.782;9.252;2022-12-07T01:30:59;6.20;56.80
439;DHT22;206;48.782;9.252;2022-12-07T01:33:30;6.20;57.20
439;DHT22;206;48.782;9.252;2022-12-07T01:36:15;6.20;57.20
439;DHT22;206;48.782;9.252;2022-12-07T01:38:41;6.20;57.20
439;DHT22;206;48.782;9.252;2022-12-07T01:41:08;6.10;56.00
439;DHT22;206;48.782;9.252;2022-12-07T01:43:34;6.10;56.10
439;DHT22;206;48.782;9.252;2022-12-07T01:46:01;6.10;55.80
439;DHT22;206;48.782;9.252;2022-12-07T01:48:38;6.10;55.80
439;DHT22;206;48.782;9.252;2022-12-07T01:51:11;6.00;56.00
439;DHT22;206;48.782;9.252;2022-12-07T01:53:41;6.00;55.70
439;DHT22;206;48.782;9.252;2022-12-07T01:56:08;6.00;55.80
439;DHT22;206;48.782;9.252;2022-12-07T01:58:36;6.00;56.50
439;DHT22;206;48.782;9.252;2022-12-07T02:01:02;6.00;56.30
439;DHT22;206;48.782;9.252;2022-12-07T02:03:36;6.10;55.80
439;DHT22;206;48.782;9.252;2022-12-07T02:06:04;6.00;56.90
439;DHT22;206;48.782;9.252;2022-12-07T02:08:30;6.00;56.90
439;DHT22;206;48.782;9.252;2022-12-07T02:10:56;6.10;56.10
439;DHT22;206;48.782;9.252;2022-12-07T02:13:25;6.10;55.20
439;DHT22;206;48.782;9.252;2022-12-07T02:24:29;6.10;55.80
439;DHT22;206;48.782;9.252;2022-12-07T02:32:18;6.30;54.50
439;DHT22;206;48.782;9.252;2022-12-07T02:34:56;6.30;53.80
439;DHT22;206;48.782;9.252;2022-12-07T02:37:40;6.30;54.10
439;DHT22;206;48.782;9.252;2022-12-07T02:40:18;6.30;53.80
439;DHT22;206;48.782;9.252;2022-12-07T02:42:49;6.30;54.20
439;DHT22;206;48.782;9.252;2022-12-07T02:45:18;6.30;53.90
439;DHT22;206;48.782;9.252;2022-12-07T02:47:50;6.30;54.30
439;DHT22;206;48.782;9.252;2022-12-07T02:50:20;6.30;54.30
439;DHT22;206;48.782;9.252;2022-12-07T02:52:46;6.40;54.20
439;DHT22;206;48.782;9.252;2022-12-07T02:55:15;6.40;53.80
439;DHT22;206;48.782;9.252;2022-12-07T03:00:26;6.50;53.60
439;DHT22;206;48.782;9.252;2022-12-07T03:03:08;6.50;53.20
439;DHT22;206;48.782;9.252;2022-12-07T03:08:30;6.60;53.00
439;DHT22;206;48.782;9.252;2022-12-07T03:11:09;6.60;52.50
439;DHT22;206;48.782;9.252;2022-12-07T03:13:52;6.60;52.00
439;DHT22;206;48.782;9.252;2022-12-07T03:16:20;6.50;52.00
439;DHT22;206;48.782;9.252;2022-12-07T03:18:59;6.50;52.40
439;DHT22;206;48.782;9.252;2022-12-07T03:21:31;6.60;52.20
439;DHT22;206;48.782;9.252;2022-12-07T03:23:59;6.60;52.00
439;DHT22;206;48.782;9.252;2022-12-07T03:26:31;6.60;52.80
439;DHT22;206;48.782;9.252;2022-12-07T03:29:04;6.60;51.80
439;DHT22;206;48.782;9.252;2022-12-07T03:31:39;6.60;50.90
439;DHT22;206;48.782;9.252;2022-12-07T03:34:19;6.60;51.50
439;DHT22;206;48.782;9.252;2022-12-07T03:36:55;6.60;51.50
439;DHT22;206;48.782;9.252;2022-12-07T03:42:05;6.60;50.50
439;DHT22;206;48.782;9.252;2022-12-07T03:44:34;6.60;50.40
439;DHT22;206;48.782;9.252;2022-12-07T03:52:56;6.50;49.60
439;DHT22;206;48.782;9.252;2022-12-07T03:55:34;6.50;49.80
439;DHT22;206;48.782;9.252;2022-12-07T03:58:07;6.50;49.30
439;DHT22;206;48.782;9.252;2022-12-07T04:00:34;6.50;49.10
439;DHT22;206;48.782;9.252;2022-12-07T04:03:00;6.50;48.60
439;DHT22;206;48.782;9.252;2022-12-07T04:05:26;6.50;48.80
439;DHT22;206;48.782;9.252;2022-12-07T04:07:52;6.40;49.00
439;DHT22;206;48.782;9.252;2022-12-07T04:10:18;6.40;49.20
439;DHT22;206;48.782;9.252;2022-12-07T04:12:44;6.40;49.30
439;DHT22;206;48.782;9.252;2022-12-07T04:15:09;6.40;49.50
439;DHT22;206;48.782;9.252;2022-12-07T04:17:35;6.30;48.60
439;DHT22;206;48.782;9.252;2022-12-07T04:20:02;6.20;49.80
439;DHT22;206;48.782;9.252;2022-12-07T04:22:29;6.10;50.80
439;DHT22;206;48.782;9.252;2022-12-07T04:24:54;6.00;51.00
439;DHT22;206;48.782;9.252;2022-12-07T04:27:20;6.00;51.00
439;DHT22;206;48.782;9.252;2022-12-07T04:29:46;5.90;51.60
439;DHT22;206;48.782;9.252;2022-12-07T04:32:11;5.70;52.00
439;DHT22;206;48.782;9.252;2022-12-07T04:34:37;5.60;53.80
439;DHT22;206;48.782;9.252;2022-12-07T04:37:02;5.50;54.90
439;DHT22;206;48.782;9.252;2022-12-07T04:39:30;5.40;54.30
439;DHT22;206;48.782;9.252;2022-12-07T04:41:56;5.30;53.20
439;DHT22;206;48.782;9.252;2022-12-07T04:44:23;5.20;53.60
439;DHT22;206;48.782;9.252;2022-12-07T04:46:49;5.20;52.90
439;DHT22;206;48.782;9.252;2022-12-07T04:49:16;5.20;53.40
439;DHT22;206;48.782;9.252;2022-12-07T04:51:42;5.20;53.50
439;DHT22;206;48.782;9.252;2022-12-07T04:54:08;5.30;53.00
439;DHT22;206;48.782;9.252;2022-12-07T04:56:34;5.30;52.60
439;DHT22;206;48.782;9.252;2022-12-07T04:59:01;5.40;51.70
439;DHT22;206;48.782;9.252;2022-12-07T05:01:27;5.50;51.30
439;DHT22;206;48.782;9.252;2022-12-07T05:03:53;5.50;51.30
439;DHT22;206;48.782;9.252;2022-12-07T05:06:18;5.60;51.40
439;DHT22;206;48.782;9.252;2022-12-07T05:08:44;5.60;51.30
439;DHT22;206;48.782;9.252;2022-12-07T05:11:11;5.60;50.90
439;DHT22;206;48.782;9.252;2022-12-07T05:14:00;5.70;51.00
439;DHT22;206;48.782;9.252;2022-12-07T05:16:26;5.60;48.90
439;DHT22;206;48.782;9.252;2022-12-07T05:18:51;5.60;49.20
439;DHT22;206;48.782;9.252;2022-12-07T05:21:17;5.60;47.80
439;DHT22;206;48.782;9.252;2022-12-07T05:23:42;5.60;48.20
439;DHT22;206;48.782;9.252;2022-12-07T05:26:08;5.60;47.80
439;DHT22;206;48.782;9.252;2022-12-07T05:28:33;5.60;47.70
439;DHT22;206;48.782;9.252;2022-12-07T05:30:59;5.50;48.30
439;DHT22;206;48.782;9.252;2022-12-07T05:33:25;5.50;48.60
439;DHT22;206;48.782;9.252;2022-12-07T05:35:50;5.60;49.00
439;DHT22;206;48.782;9.252;2022-12-07T05:38:16;5.60;48.90
439;DHT22;206;48.782;9.252;2022-12-07T05:40:41;5.50;49.10
439;DHT22;206;48.782;9.252;2022-12-07T05:43:07;5.50;49.90
439;DHT22;206;48.782;9.252;2022-12-07T05:45:32;5.50;50.50
439;DHT22;206;48.782;9.252;2022-12-07T05:47:58;5.40;50.40
439;DHT22;206;48.782;9.252;2022-12-07T05:50:24;5.30;51.20
439;DHT22;206;48.782;9.252;2022-12-07T05:52:49;5.20;52.00
439;DHT22;206;48.782;9.252;2022-12-07T05:55:15;5.10;53.20
439;DHT22;206;48.782;9.252;2022-12-07T05:57:40;5.10;53.70
439;DHT22;206;48.782;9.252;2022-12-07T06:00:26;5.10;54.10
439;DHT22;206;48.782;9.252;2022-12-07T06:02:51;5.10;54.40
439;DHT22;206;48.782;9.252;2022-12-07T06:05:17;5.00;54.70
439;DHT22;206;48.782;9.252;2022-12-07T06:07:43;5.00;54.90
439;DHT22;206;48.782;9.252;2022-12-07T06:10:08;5.00;54.90
439;DHT22;206;48.782;9.252;2022-12-07T06:12:34;5.00;54.90
439;DHT22;206;48.782;9.252;2022-12-07T06:15:00;4.90;55.50
439;DHT22;206;48.782;9.252;2022-12-07T06:17:26;5.00;54.90
439;DHT22;206;48.782;9.252;2022-12-07T06:19:51;5.00;55.30
439;DHT22;206;48.782;9.252;2022-12-07T06:22:17;5.00;55.30
439;DHT22;206;48.782;9.252;2022-12-07T06:24:43;5.00;55.30
439;DHT22;206;48.782;9.252;2022-12-07T06:27:09;5.10;55.00
439;DHT22;206;48.782;9.252;2022-12-07T06:29:35;5.20;54.50
439;DHT22;206;48.782;9.252;2022-12-07T06:32:01;5.20;54.10
439;DHT22;206;48.782;9.252;2022-12-07T06:34:27;5.30;53.70
439;DHT22;206;48.782;9.252;2022-12-07T06:36:53;5.30;53.30
439;DHT22;206;48.782;9.252;2022-12-07T06:39:22;5.30;53.10
439;DHT22;206;48.782;9.252;2022-12-07T06:41:48;5.30;53.40
439;DHT22;206;48.782;9.252;2022-12-07T06:44:13;5.30;54.20
439;DHT22;206;48.782;9.252;2022-12-07T06:46:39;5.30;53.80
439;DHT22;206;48.782;9.252;2022-12-07T06:49:05;5.30;54.10
439;DHT22;206;48.782;9.252;2022-12-07T06:51:32;5.30;54.00
439;DHT22;206;48.782;9.252;2022-12-07T06:53:58;5.30;54.30
439;DHT22;206;48.782;9.252;2022-12-07T06:56:24;5.30;54.20
439;DHT22;206;48.782;9.252;2022-12-07T06:58:49;5.30;54.10
439;DHT22;206;48.782;9.252;2022-12-07T07:01:17;5.20;53.90
439;DHT22;206;48.782;9.252;2022-12-07T07:03:44;5.20;54.40
439;DHT22;206;48.782;9.252;2022-12-07T07:06:10;5.20;54.70
439;DHT22;206;48.782;9.252;2022-12-07T07:08:37;5.20;54.40
439;DHT22;206;48.782;9.252;2022-12-07T07:11:04;5.30;54.50
439;DHT22;206;48.782;9.252;2022-12-07T07:13:29;5.30;54.20
439;DHT22;206;48.782;9.252;2022-12-07T07:15:55;5.20;55.00
439;DHT22;206;48.782;9.252;2022-12-07T07:18:21;5.20;55.00
439;DHT22;206;48.782;9.252;2022-12-07T07:20:47;5.30;55.20
439;DHT22;206;48.782;9.252;2022-12-07T07:23:13;5.30;54.10
439;DHT22;206;48.782;9.252;2022-12-07T07:25:38;5.30;53.40
439;DHT22;206;48.782;9.252;2022-12-07T07:28:04;5.40;53.90
439;DHT22;206;48.782;9.252;2022-12-07T07:30:30;5.40;53.60
439;DHT22;206;48.782;9.252;2022-12-07T07:32:57;5.50;52.60
439;DHT22;206;48.782;9.252;2022-12-07T07:35:24;5.50;51.60
439;DHT22;206;48.782;9.252;2022-12-07T07:37:49;5.50;52.00
439;DHT22;206;48.782;9.252;2022-12-07T07:40:15;5.60;51.40
439;DHT22;206;48.782;9.252;2022-12-07T07:42:41;5.60;50.70
439;DHT22;206;48.782;9.252;2022-12-07T07:45:07;5.60;49.60
439;DHT22;206;48.782;9.252;2022-12-07T07:47:32;5.70;49.10
439;DHT22;206;48.782;9.252;2022-12-07T07:49:58;5.70;49.80
439;DHT22;206;48.782;9.252;2022-12-07T07:52:24;5.70;49.40
439;DHT22;206;48.782;9.252;2022-12-07T07:54:49;5.60;50.00
439;DHT22;206;48.782;9.252;2022-12-07T07:57:16;5.70;48.80
439;DHT22;206;48.782;9.252;2022-12-07T07:59:42;5.70;48.70
439;DHT22;206;48.782;9.252;2022-12-07T08:02:14;5.70;48.10
439;DHT22;206;48.782;9.252;2022-12-07T08:04:40;5.80;46.10
439;DHT22;206;48.782;9.252;2022-12-07T08:07:06;5.90;46.20
439;DHT22;206;48.782;9.252;2022-12-07T08:09:31;6.00;44.60
439;DHT22;206;48.782;9.252;2022-12-07T08:11:57;6.00;44.00
439;DHT22;206;48.782;9.252;2022-12-07T08:14:24;6.20;43.70
439;DHT22;206;48.782;9.252;2022-12-07T08:16:50;6.30;43.30
439;DHT22;206;48.782;9.252;2022-12-07T08:19:15;6.30;41.70
439;DHT22;206;48.782;9.252;2022-12-07T08:21:41;6.30;41.20
439;DHT22;206;48.782;9.252;2022-12-07T08:24:06;6.30;41.30
439;DHT22;206;48.782;9.252;2022-12-07T08:26:32;6.40;40.90
439;DHT22;206;48.782;9.252;2022-12-07T08:28:58;6.40;40.60
439;DHT22;206;48.782;9.252;2022-12-07T08:31:24;6.50;40.60
439;DHT22;206;48.782;9.252;2022-12-07T08:33:50;6.50;40.90
439;DHT22;206;48.782;9.252;2022-12-07T08:36:16;6.50;41.10
439;DHT22;206;48.782;9.252;2022-12-07T08:38:42;6.50;40.80
439;DHT22;206;48.782;9.252;2022-12-07T08:41:08;6.60;40.40
439;DHT22;206;48.782;9.252;2022-12-07T08:43:34;6.70;40.60
439;DHT22;206;48.782;9.252;2022-12-07T08:49:04;6.80;40.30
439;DHT22;206;48.782;9.252;2022-12-07T08:51:31;7.00;39.50
439;DHT22;206;48.782;9.252;2022-12-07T08:53:58;7.00;37.40
439;DHT22;206;48.782;9.252;2022-12-07T08:56:26;7.00;38.60
439;DHT22;206;48.782;9.252;2022-12-07T08:58:52;7.00;38.10
439;DHT22;206;48.782;9.252;2022-12-07T09:01:18;7.20;37.90
439;DHT22;206;48.782;9.252;2022-12-07T09:03:43;7.20;37.50
439;DHT22;206;48.782;9.252;2022-12-07T09:06:09;7.30;37.60
439;DHT22;206;48.782;9.252;2022-12-07T09:08:38;7.40;37.60
439;DHT22;206;48.782;9.252;2022-12-07T09:11:06;7.40;36.30
439;DHT22;206;48.782;9.252;2022-12-07T09:13:31;7.40;37.30
439;DHT22;206;48.782;9.252;2022-12-07T09:15:57;7.40;37.10
439;DHT22;206;48.782;9.252;2022-12-07T09:18:22;7.50;36.20
439;DHT22;206;48.782;9.252;2022-12-07T09:20:49;7.50;36.50
439;DHT22;206;48.782;9.252;2022-12-07T09:23:15;7.40;36.20
439;DHT22;206;48.782;9.252;2022-12-07T09:25:41;7.50;35.80
439;DHT22;206;48.782;9.252;2022-12-07T09:28:06;7.60;36.10
439;DHT22;206;48.782;9.252;2022-12-07T09:30:32;7.70;35.80
439;DHT22;206;48.782;9.252;2022-12-07T09:32:58;7.60;36.50
439;DHT22;206;48.782;9.252;2022-12-07T09:35:24;7.70;36.00
439;DHT22;206;48.782;9.252;2022-12-07T09:37:50;7.80;35.20
439;DHT22;206;48.782;9.252;2022-12-07T09:40:17;7.90;34.70
439;DHT22;206;48.782;9.252;2022-12-07T09:42:52;7.90;34.40
439;DHT22;206;48.782;9.252;2022-12-07T09:45:26;7.90;34.90
439;DHT22;206;48.782;9.252;2022-12-07T09:47:52;7.80;36.00
439;DHT22;206;48.782;9.252;2022-12-07T09:50:26;7.80;36.20
439;DHT22;206;48.782;9.252;2022-12-07T09:52:53;7.70;35.50
439;DHT22;206;48.782;9.252;2022-12-07T09:55:27;7.80;36.50
439;DHT22;206;48.782;9.252;2022-12-07T09:57:53;7.90;35.10
439;DHT22;206;48.782;9.252;2022-12-07T10:00:21;8.00;33.60
439;DHT22;206;48.782;9.252;2022-12-07T10:03:00;7.90;34.10
439;DHT22;206;48.782;9.252;2022-12-07T10:05:52;7.80;34.30
439;DHT22;206;48.782;9.252;2022-12-07T10:08:18;7.70;34.20
439;DHT22;206;48.782;9.252;2022-12-07T10:10:50;7.70;34.60
439;DHT22;206;48.782;9.252;2022-12-07T10:13:22;7.70;35.20
439;DHT22;206;48.782;9.252;2022-12-07T10:18:34;8.10;33.20
439;DHT22;206;48.782;9.252;2022-12-07T10:21:21;8.30;33.40
439;DHT22;206;48.782;9.252;2022-12-07T10:26:50;8.50;32.70
439;DHT22;206;48.782;9.252;2022-12-07T10:29:24;8.60;32.20
439;DHT22;206;48.782;9.252;2022-12-07T10:37:27;8.70;29.60
439;DHT22;206;48.782;9.252;2022-12-07T10:39:57;8.70;29.50
439;DHT22;206;48.782;9.252;2022-12-07T10:42:27;8.60;29.30
439;DHT22;206;48.782;9.252;2022-12-07T10:45:13;8.50;29.70
439;DHT22;206;48.782;9.252;2022-12-07T10:48:07;8.40;30.20
439;DHT22;206;48.782;9.252;2022-12-07T10:50:45;8.40;30.30
439;DHT22;206;48.782;9.252;2022-12-07T10:53:30;8.40;30.20
439;DHT22;206;48.782;9.252;2022-12-07T11:01:40;8.30;30.60
439;DHT22;206;48.782;9.252;2022-12-07T11:07:08;8.30;31.40
439;DHT22;206;48.782;9.252;2022-12-07T11:10:02;8.20;31.40
439;DHT22;206;48.782;9.252;2022-12-07T11:18:06;8.00;33.20
439;DHT22;206;48.782;9.252;2022-12-07T11:20:53;7.90;33.60
439;DHT22;206;48.782;9.252;2022-12-07T11:26:25;7.90;33.80
439;DHT22;206;48.782;9.252;2022-12-07T11:37:35;8.00;36.10
439;DHT22;206;48.782;9.252;2022-12-07T11:42:51;7.90;36.40
439;DHT22;206;48.782;9.252;2022-12-07T11:45:20;7.90;36.70
439;DHT22;206;48.782;9.252;2022-12-07T11:53:01;7.70;37.90
439;DHT22;206;48.782;9.252;2022-12-07T12:03:44;7.40;41.10
439;DHT22;206;48.782;9.252;2022-12-07T12:06:11;7.40;42.50
439;DHT22;206;48.782;9.252;2022-12-07T12:08:54;7.40;41.90
439;DHT22;206;48.782;9.252;2022-12-07T12:17:36;7.30;43.60
439;DHT22;206;48.782;9.252;2022-12-07T12:23:23;7.40;43.70
439;DHT22;206;48.782;9.252;2022-12-07T12:25:50;7.40;42.50
439;DHT22;206;48.782;9.252;2022-12-07T12:28:29;7.40;42.50
439;DHT22;206;48.782;9.252;2022-12-07T12:31:11;7.40;42.50
439;DHT22;206;48.782;9.252;2022-12-07T12:33:49;7.30;42.50
439;DHT22;206;48.782;9.252;2022-12-07T12:46:55;7.10;44.50
439;DHT22;206;48.782;9.252;2022-12-07T12:54:25;7.20;42.40
439;DHT22;206;48.782;9.252;2022-12-07T12:59:56;7.30;42.50
439;DHT22;206;48.782;9.252;2022-12-07T13:02:37;7.40;42.40
439;DHT22;206;48.782;9.252;2022-12-07T13:10:31;7.60;39.20
439;DHT22;206;48.782;9.252;2022-12-07T13:18:37;7.70;39.80
439;DHT22;206;48.782;9.252;2022-12-07T13:26:19;8.00;39.30
439;DHT22;206;48.782;9.252;2022-12-07T13:28:51;8.00;38.20
439;DHT22;206;48.782;9.252;2022-12-07T13:31:34;8.10;38.20
439;DHT22;206;48.782;9.252;2022-12-07T13:34:02;8.00;37.30
439;DHT22;206;48.782;9.252;2022-12-07T13:36:36;7.90;38.10
439;DHT22;206;48.782;9.252;2022-12-07T13:41:44;7.80;38.00
439;DHT22;206;48.782;9.252;2022-12-07T13:46:51;7.70;38.90
439;DHT22;206;48.782;9.252;2022-12-07T13:49:28;7.60;39.40
439;DHT22;206;48.782;9.252;2022-12-07T13:51:56;7.70;39.90
439;DHT22;206;48.782;9.252;2022-12-07T13:54:32;7.70;39.50
439;DHT22;206;48.782;9.252;2022-12-07T13:56:58;7.80;39.50
439;DHT22;206;48.782;9.252;2022-12-07T13:59:25;7.90;38.90
439;DHT22;206;48.782;9.252;2022-12-07T14:01:51;8.00;38.60
439;DHT22;206;48.782;9.252;2022-12-07T14:04:36;8.00;38.20
439;DHT22;206;48.782;9.252;2022-12-07T14:07:26;8.10;38.20
439;DHT22;206;48.782;9.252;2022-12-07T14:10:00;8.00;37.50
439;DHT22;206;48.782;9.252;2022-12-07T14:12:27;8.10;37.20
439;DHT22;206;48.782;9.252;2022-12-07T14:14:54;8.10;37.30
439;DHT22;206;48.782;9.252;2022-12-07T14:17:23;8.10;37.70
439;DHT22;206;48.782;9.252;2022-12-07T14:19:51;8.10;37.80
439;DHT22;206;48.782;9.252;2022-12-07T14:24:48;8.10;38.90
439;DHT22;206;48.782;9.252;2022-12-07T14:27:22;8.20;36.90
439;DHT22;206;48.782;9.252;2022-12-07T14:29:48;8.20;36.60
439;DHT22;206;48.782;9.252;2022-12-07T14:32:25;8.20;36.80
439;DHT22;206;48.782;9.252;2022-12-07T14:37:26;8.10;36.40
439;DHT22;206;48.782;9.252;2022-12-07T14:39:52;8.00;36.40
439;DHT22;206;48.782;9.252;2022-12-07T14:42:18;7.90;36.80
439;DHT22;206;48.782;9.252;2022-12-07T14:44:44;7.80;37.40
439;DHT22;206;48.782;9.252;2022-12-07T14:47:10;7.60;37.80
439;DHT22;206;48.782;9.252;2022-12-07T14:49:36;7.40;38.20
439;DHT22;206;48.782;9.252;2022-12-07T14:52:02;7.30;38.60
439;DHT22;206;48.782;9.252;2022-12-07T14:54:31;7.30;39.30
439;DHT22;206;48.782;9.252;2022-12-07T14:56:56;7.30;40.30
439;DHT22;206;48.782;9.252;2022-12-07T14:59:22;7.20;40.40
439;DHT22;206;48.782;9.252;2022-12-07T15:01:48;7.20;40.70
439;DHT22;206;48.782;9.252;2022-12-07T15:04:13;7.20;41.40
439;DHT22;206;48.782;9.252;2022-12-07T15:06:39;7.20;40.90
439;DHT22;206;48.782;9.252;2022-12-07T15:09:05;7.20;40.60
439;DHT22;206;48.782;9.252;2022-12-07T15:11:30;7.20;41.10
439;DHT22;206;48.782;9.252;2022-12-07T15:13:56;7.20;40.80
439;DHT22;206;48.782;9.252;2022-12-07T15:16:35;7.30;40.80
439;DHT22;206;48.782;9.252;2022-12-07T15:19:01;7.30;40.50
439;DHT22;206;48.782;9.252;2022-12-07T15:21:26;7.40;40.30
439;DHT22;206;48.782;9.252;2022-12-07T15:23:53;7.40;40.20
439;DHT22;206;48.782;9.252;2022-12-07T15:26:19;7.40;40.20
439;DHT22;206;48.782;9.252;2022-12-07T15:28:44;7.40;41.00
439;DHT22;206;48.782;9.252;2022-12-07T15:31:15;7.40;40.80
439;DHT22;206;48.782;9.252;2022-12-07T15:33:44;7.30;40.60
439;DHT22;206;48.782;9.252;2022-12-07T15:36:19;7.30;40.40
439;DHT22;206;48.782;9.252;2022-12-07T15:38:45;7.20;40.80
439;DHT22;206;48.782;9.252;2022-12-07T15:41:11;7.30;40.60
439;DHT22;206;48.782;9.252;2022-12-07T15:43:37;7.20;41.10
439;DHT22;206;48.782;9.252;2022-12-07T15:46:20;7.20;40.60
439;DHT22;206;48.782;9.252;2022-12-07T15:48:46;7.20;40.60
439;DHT22;206;48.782;9.252;2022-12-07T15:51:12;7.10;41.00
439;DHT22;206;48.782;9.252;2022-12-07T15:53:38;7.10;41.50
439;DHT22;206;48.782;9.252;2022-12-07T15:56:07;7.10;41.70
439;DHT22;206;48.782;9.252;2022-12-07T15:58:33;7.10;42.30
439;DHT22;206;48.782;9.252;2022-12-07T16:00:58;6.90;42.20
439;DHT22;206;48.782;9.252;2022-12-07T16:03:24;6.90;43.60
439;DHT22;206;48.782;9.252;2022-12-07T16:05:50;6.90;44.00
439;DHT22;206;48.782;9.252;2022-12-07T16:08:16;6.90;44.10
439;DHT22;206;48.782;9.252;2022-12-07T16:10:41;6.90;43.60
439;DHT22;206;48.782;9.252;2022-12-07T16:13:09;6.90;43.40
439;DHT22;206;48.782;9.252;2022-12-07T16:15:41;6.90;43.40
439;DHT22;206;48.782;9.252;2022-12-07T16:18:07;6.90;42.20
439;DHT22;206;48.782;9.252;2022-12-07T16:20:33;6.90;42.10
439;DHT22;206;48.782;9.252;2022-12-07T16:22:59;6.90;41.40
439;DHT22;206;48.782;9.252;2022-12-07T16:25:24;6.70;41.40
439;DHT22;206;48.782;9.252;2022-12-07T16:27:51;6.70;42.00
439;DHT22;206;48.782;9.252;2022-12-07T16:30:17;6.70;42.00
439;DHT22;206;48.782;9.252;2022-12-07T16:32:43;6.60;41.90
439;DHT22;206;48.782;9.252;2022-12-07T16:35:09;6.60;42.00
439;DHT22;206;48.782;9.252;2022-12-07T16:37:34;6.50;43.10
439;DHT22;206;48.782;9.252;2022-12-07T16:40:00;6.50;43.10
439;DHT22;206;48.782;9.252;2022-12-07T16:42:26;6.50;43.90
439;DHT22;206;48.782;9.252;2022-12-07T16:44:52;6.50;44.00
439;DHT22;206;48.782;9.252;2022-12-07T16:47:18;6.50;42.70
439;DHT22;206;48.782;9.252;2022-12-07T16:49:43;6.40;43.20
439;DHT22;206;48.782;9.252;2022-12-07T16:52:09;6.40;43.10
439;DHT22;206;48.782;9.252;2022-12-07T16:54:35;6.40;43.40
439;DHT22;206;48.782;9.252;2022-12-07T16:57:01;6.30;43.10
439;DHT22;206;48.782;9.252;2022-12-07T16:59:27;6.10;44.00
439;DHT22;206;48.782;9.252;2022-12-07T17:01:52;5.90;44.70
439;DHT22;206;48.782;9.252;2022-12-07T17:04:18;5.80;45.40
439;DHT22;206;48.782;9.252;2022-12-07T17:06:43;5.80;46.10
439;DHT22;206;48.782;9.252;2022-12-07T17:09:09;5.70;46.30
439;DHT22;206;48.782;9.252;2022-12-07T17:11:37;5.70;46.80
439;DHT22;206;48.782;9.252;2022-12-07T17:14:02;5.60;46.90
439;DHT22;206;48.782;9.252;2022-12-07T17:16:47;5.70;47.50
439;DHT22;206;48.782;9.252;2022-12-07T17:19:15;5.70;46.70
439;DHT22;206;48.782;9.252;2022-12-07T17:21:41;5.70;46.20
439;DHT22;206;48.782;9.252;2022-12-07T17:24:09;5.80;46.30
439;DHT22;206;48.782;9.252;2022-12-07T17:26:36;5.80;46.30
439;DHT22;206;48.782;9.252;2022-12-07T17:29:04;5.90;46.20
439;DHT22;206;48.782;9.252;2022-12-07T17:31:29;6.00;46.20
439;DHT22;206;48.782;9.252;2022-12-07T17:33:55;6.00;45.70
439;DHT22;206;48.782;9.252;2022-12-07T17:36:23;6.00;45.40
439;DHT22;206;48.782;9.252;2022-12-07T17:38:50;6.00;45.30
439;DHT22;206;48.782;9.252;2022-12-07T17:41:21;6.10;45.70
439;DHT22;206;48.782;9.252;2022-12-07T17:44:07;6.10;45.30
439;DHT22;206;48.782;9.252;2022-12-07T17:46:34;6.20;45.20
439;DHT22;206;48.782;9.252;2022-12-07T17:49:00;6.30;44.20
439;DHT22;206;48.782;9.252;2022-12-07T17:51:26;6.40;43.80
439;DHT22;206;48.782;9.252;2022-12-07T17:54:11;6.40;42.10
439;DHT22;206;48.782;9.252;2022-12-07T17:56:36;6.50;41.80
439;DHT22;206;48.782;9.252;2022-12-07T17:59:03;6.50;41.90
439;DHT22;206;48.782;9.252;2022-12-07T18:01:29;6.50;41.40
439;DHT22;206;48.782;9.252;2022-12-07T18:03:54;6.50;40.10
439;DHT22;206;48.782;9.252;2022-12-07T18:06:20;6.60;39.20
439;DHT22;206;48.782;9.252;2022-12-07T18:08:45;6.60;39.70
439;DHT22;206;48.782;9.252;2022-12-07T18:11:11;6.70;39.50
439;DHT22;206;48.782;9.252;2022-12-07T18:13:37;6.70;39.30
439;DHT22;206;48.782;9.252;2022-12-07T18:16:08;6.70;39.40
439;DHT22;206;48.782;9.252;2022-12-07T18:18:34;6.70;39.60
439;DHT22;206;48.782;9.252;2022-12-07T18:21:06;6.70;39.70
439;DHT22;206;48.782;9.252;2022-12-07T18:23:32;6.70;39.50
439;DHT22;206;48.782;9.252;2022-12-07T18:25:59;6.60;40.00
439;DHT22;206;48.782;9.252;2022-12-07T18:28:25;6.60;40.30
439;DHT22;206;48.782;9.252;2022-12-07T18:30:50;6.70;39.90
439;DHT22;206;48.782;9.252;2022-12-07T18:33:20;6.70;40.20
439;DHT22;206;48.782;9.252;2022-12-07T18:35:46;6.70;40.00
439;DHT22;206;48.782;9.252;2022-12-07T18:38:13;6.70;39.90
439;DHT22;206;48.782;9.252;2022-12-07T18:40:41;6.80;39.80
439;DHT22;206;48.782;9.252;2022-12-07T18:43:08;6.80;39.20
439;DHT22;206;48.782;9.252;2022-12-07T18:45:38;6.80;39.00
439;DHT22;206;48.782;9.252;2022-12-07T18:48:04;6.80;39.60
439;DHT22;206;48.782;9.252;2022-12-07T18:50:30;6.80;39.30
439;DHT22;206;48.782;9.252;2022-12-07T18:52:58;6.70;39.50
439;DHT22;206;48.782;9.252;2022-12-07T18:55:24;6.70;40.00
439;DHT22;206;48.782;9.252;2022-12-07T18:57:51;6.70;39.90
439;DHT22;206;48.782;9.252;2022-12-07T19:00:18;6.70;39.60
439;DHT22;206;48.782;9.252;2022-12-07T19:02:44;6.60;39.40
439;DHT22;206;48.782;9.252;2022-12-07T19:05:09;6.60;39.60
439;DHT22;206;48.782;9.252;2022-12-07T19:07:36;6.40;40.30
439;DHT22;206;48.782;9.252;2022-12-07T19:10:02;6.40;41.80
439;DHT22;206;48.782;9.252;2022-12-07T19:12:28;6.40;41.50
439;DHT22;206;48.782;9.252;2022-12-07T19:14:53;6.40;41.70
439;DHT22;206;48.782;9.252;2022-12-07T19:17:20;6.40;41.70